Flight Track Log - Related Links

Times and Time Zones

All times are in EDT time to prevent confusion due to time zone crossing. See the EJA952 flight status page for this flight to view local times or setup timezone preferences in your user account.

Time Position Orientation Groundspeed Altitude Reporting Facility
EDT Latitude Longitude Course Direction KTS MPH feet Rate Location/Type
Mon 11:29:12 AM 35.7822 -80.9797 345° North 518 596 2,600  Level Atlanta Center
Mon 11:30:12 AM 35.8389 -80.9931 349° North 316 364 5,700 3,150 Climbing Atlanta Center
Mon 11:31:12 AM 35.9083 -81.0161 345° North 259 298 8,900 2,150 Climbing Atlanta Center
Mon 11:32:12 AM 35.9906 -81.0439 345° North 276 318 10,000 2,050 Climbing Atlanta Center
Mon 11:33:00 AM 36.4895 -81.1964 345° North  Level FlightAware Approximate
Mon 11:33:12 AM 36.0936 -81.0786 345° North 349 402 13,000  Level Atlanta Center
Mon 11:34:12 AM 36.1903 -81.1111 345° North 365 420 15,300 2,050 Climbing Atlanta Center
Mon 11:35:12 AM 36.2975 -81.1508 343° North 378 435 17,100 1,850 Climbing Atlanta Center
Mon 11:36:12 AM 36.3961 -81.1808 346° North 399 459 19,000 1,850 Climbing Atlanta Center
Mon 11:37:12 AM 36.5078 -81.2233 343° North 409 471 20,800 1,750 Climbing Atlanta Center
Mon 11:38:12 AM 36.6211 -81.2608 345° North 414 476 22,500 1,650 Climbing Atlanta Center
Mon 11:39:12 AM 36.7389 -81.3008 345° North 422 486 24,100 806 Climbing Atlanta Center
Mon 11:41:18 AM 36.9967 -81.3925 344° North 479 551 25,000 511 Climbing Indianapolis Center
Mon 11:42:20 AM 37.1378 -81.4425 344° North 498 573 25,700 1,073 Climbing Indianapolis Center
Mon 11:43:21 AM 37.2939 -81.4747 351° North 488 562 27,200 1,317 Climbing Indianapolis Center
Mon 11:44:23 AM 37.4194 -81.4478 10° North 492 566 28,400 871 Climbing Indianapolis Center
Mon 11:45:25 AM 37.5533 -81.4169 10° North 500 575 29,000 293 Climbing Indianapolis Center
Mon 11:46:26 AM 37.7178 -81.3767 11° North 513 590 29,000  Level Indianapolis Center
Mon 11:47:28 AM 37.8547 -81.3461 10° North 529 609 29,000  Level Indianapolis Center
Mon 11:48:29 AM 37.9972 -81.3100 11° North 525 604 29,000  Level Indianapolis Center
Mon 11:49:31 AM 38.1411 -81.2781 10° North 525 604 29,000  Level Indianapolis Center
Mon 11:50:33 AM 38.3119 -81.2347 11° North 525 604 29,000 -537 Level Indianapolis Center
Mon 11:51:34 AM 38.4572 -81.2000 11° North 532 612 27,900 -976 Descending Indianapolis Center
Mon 11:52:36 AM 38.5961 -81.1658 11° North 516 594 27,000 -435 Descending Indianapolis Center
Mon 11:53:38 AM 38.7353 -81.1331 10° North 515 593 27,000  Level Indianapolis Center
Mon 11:54:39 AM 38.8733 -81.0992 11° North 512 589 27,000 -390 Level Indianapolis Center
Mon 11:55:41 AM 39.0142 -81.0636 11° North 515 593 26,200 -1,463 Descending Indianapolis Center
Mon 11:56:42 AM 39.1797 -81.0239 11° North 508 585 24,000 -2,146 Descending Indianapolis Center
Mon 11:57:44 AM 39.3153 -80.9908 11° North 499 574 21,800 -1,452 Descending Indianapolis Center
Mon 11:58:46 AM 39.4447 -80.9592 11° North 477 549 21,000 -390 Descending Indianapolis Center
Mon 11:59:47 AM 39.5725 -80.9281 11° North 468 539 21,000 -878 Level Indianapolis Center
Mon 12:00:49 PM 39.7011 -80.8956 11° North 471 542 19,200 -2,032 Descending Indianapolis Center
Mon 12:01:51 PM 39.8244 -80.8661 10° North 455 524 16,800 -2,563 Descending Indianapolis Center
Mon 12:02:32 PM 39.9250 -80.8403 11° North 453 521 14,800 -2,614 Descending Cleveland Center
Mon 12:03:32 PM 40.0336 -80.7919 19° North 437 503 12,400 -2,350 Descending Cleveland Center
Mon 12:04:32 PM 40.1275 -80.7108 33° Northeast 404 465 10,100 -1,200 Descending Cleveland Center
Mon 12:05:32 PM 40.2214 -80.6319 33° Northeast 398 458 10,000  Descending Cleveland Center
Mon 12:06:32 PM 40.3089 -80.5450 37° Northeast 404 465 10,100 -400 Climbing Cleveland Center
Mon 12:07:32 PM 40.3611 -80.4522 54° Northeast 352 405 9,200 -1,250 Descending Cleveland Center
Mon 12:08:32 PM 40.3714 -80.3706 81° East 312 359 7,600 -1,550 Descending Cleveland Center
Mon 12:09:32 PM 40.3669 -80.2561 93° East 287 330 6,100 -1,550 Descending Cleveland Center
Mon 12:10:32 PM 40.3561 -80.1500 98° East 274 315 4,500 -1,600 Descending Cleveland Center
Mon 12:12:00 PM 40.4833 -80.2167 270° West  Level FlightAware Approximate
Mon 12:19:00 PM 40.4915 -80.2329 270° West  Level Estimated
Mon 12:20:00 PM 40.4915 -80.2329 270° West  Level Estimated

Login

Don't have an account? Register now (free) for customized features, flight alerts, and more!